Sainte Marie — WDC2815 — position and weather

sailwx.info

Track history (hours):
 
Tides and Currents Weather Stations Pressure Air Temp Water Temp Dewpoint Dewpoint Depression Visibility Wind Speed Wind Dir Waves Ship Positions

Sainte Marie

Owner: Marquette Transportation Company Gulf-Inland, LLC, Jefferson, LA. More information available from US FCC via Universal Licensing System and Coast Guard Vessel Documentation Center.

Last reported at 2017-Nov-19 08:30 UTC. Time now 2017-Nov-19 08:41 UTC.
Position N 29°58' W 093°11'.

Length 173 m; draft 2.7 m.

Type: . MMSI: 366998050.

Date/timePositionNaut miles runAvg speedWind from/ knotsBaromVisibWave heightAir tempDewpointWater temp
2017-Nov-19 08:30N 29°58' W 093°11'0 0.0
2017-Nov-19 08:00N 29°58' W 093°11'0 0.0
2017-Nov-19 07:30N 29°58' W 093°11'0 0.0
2017-Nov-19 07:00N 29°58' W 093°11'0 0.0
2017-Nov-19 06:30N 29°58' W 093°11'0 0.0
2017-Nov-19 06:00N 29°58' W 093°11'0 0.0
2017-Nov-19 05:30N 29°58' W 093°11'0 0.0
2017-Nov-19 05:00N 29°58' W 093°11'0 0.0
2017-Nov-19 04:30N 29°58' W 093°11'0 0.0
2017-Nov-19 04:00N 29°58' W 093°11'0 0.0
2017-Nov-19 03:30N 29°58' W 093°11'0 0.0
2017-Nov-19 03:00N 29°58' W 093°11'1 2.3
2017-Nov-19 02:30N 29°57' W 093°10'2 4.2
2017-Nov-19 02:00N 29°56' W 093°08'40 4.9
2017-Nov-18 17:51N 29°52' W 092°23'2 4.8
2017-Nov-18 17:30N 29°51' W 092°21'2 5.0
2017-Nov-18 17:00N 29°50' W 092°19'2 4.6
2017-Nov-18 16:30N 29°49' W 092°17'2 4.8
2017-Nov-18 16:00N 29°48' W 092°14'2 3.4
2017-Nov-18 15:30N 29°47' W 092°12'1 2.6
2017-Nov-18 15:00N 29°47' W 092°11'2 3.7
2017-Nov-18 14:30N 29°47' W 092°09'3 5.2
2017-Nov-18 14:00N 29°48' W 092°06'3 5.1
2017-Nov-18 13:30N 29°49' W 092°03'2 4.7
2017-Nov-18 13:00N 29°50' W 092°01'  
2017-Nov-14 00:14N 29°51' W 091°53'1 4.8
2017-Nov-13 23:57N 29°51' W 091°55'3 4.6
2017-Nov-13 23:23N 29°50' W 091°58'2 4.5
2017-Nov-13 22:53N 29°50' W 092°00'1 3.2
2017-Nov-13 22:30N 29°49' W 092°02'2 4.5
2017-Nov-13 22:00N 29°48' W 092°04'67 3.2
2017-Nov-13 01:04N 30°06' W 093°18'0 0.8
2017-Nov-13 00:53N 30°06' W 093°18'0 0.0
2017-Nov-13 00:11N 30°06' W 093°18'0 0.3
2017-Nov-12 23:59N 30°06' W 093°18'1 1.5
2017-Nov-12 23:29N 30°06' W 093°19'2 3.6
2017-Nov-12 22:59N 30°04' W 093°20'2 3.1
2017-Nov-12 22:29N 30°04' W 093°22'1 2.8
2017-Nov-12 21:59N 30°04' W 093°24'0 0.1
2017-Nov-12 21:29N 30°04' W 093°24'0 0.2
2017-Nov-12 20:59N 30°04' W 093°24'2 3.4
2017-Nov-12 20:21N 30°04' W 093°26'2 4.3
2017-Nov-12 19:59N 30°04' W 093°28'2 4.4
2017-Nov-12 19:29N 30°04' W 093°31'2 4.4
2017-Nov-12 18:59N 30°04' W 093°33'52 3.8
2017-Nov-12 05:15N 29°36' W 094°24'3 3.6
2017-Nov-12 04:31N 29°34' W 094°26'0 4.8
2017-Nov-12 04:30N 29°34' W 094°26'23 3.6
2017-Nov-11 22:08N 29°30' W 094°52'1 6.4
2017-Nov-11 22:01N 29°30' W 094°53'3 6.4
2017-Nov-11 21:31N 29°33' W 094°55'3 6.2
2017-Nov-11 20:59N 29°36' W 094°57'3 6.2
2017-Nov-11 20:30N 29°38' W 094°58'3 6.5
2017-Nov-11 20:01N 29°41' W 094°59'5 5.3
2017-Nov-11 19:09N 29°44' W 095°03'1 4.5
2017-Nov-11 19:00N 29°45' W 095°04'2 1.3
2017-Nov-11 17:15N 29°47' W 095°05'1 5.2
2017-Nov-11 17:00N 29°46' W 095°05'1 1.9
2017-Nov-11 16:15N 29°47' W 095°05'0 0.0
2017-Nov-11 15:04N 29°47' W 095°05'0 4.0
2017-Nov-11 14:58N 29°46' W 095°05'0 0.0
2017-Nov-11 12:58N 29°47' W 095°05'1 0.1
2017-Nov-11 02:51N 29°46' W 095°05'1 0.6
2017-Nov-11 01:01N 29°47' W 095°05'0 4.3
2017-Nov-11 00:57N 29°46' W 095°05'0 0.0
2017-Nov-10 15:02N 29°46' W 095°05'1 0.1
2017-Nov-10 10:32N 29°46' W 095°05'1 0.2
2017-Nov-10 02:36N 29°47' W 095°04'0 2.3
2017-Nov-10 02:29N 29°47' W 095°04'1 2.9
2017-Nov-10 01:59N 29°45' W 095°04'3 5.5
2017-Nov-10 01:28N 29°44' W 095°01'3 5.4
2017-Nov-10 01:00N 29°42' W 094°60'3 5.9
2017-Nov-10 00:30N 29°39' W 094°58'4 6.1
2017-Nov-09 23:56N 29°36' W 094°57'2 5.4
2017-Nov-09 23:28N 29°34' W 094°55'  
Track history (hours):
 
Tides and Currents Weather Stations Pressure Air Temp Water Temp Dewpoint Dewpoint Depression Visibility Wind Speed Wind Dir Waves Ship Positions

Sainte Marie

Owner: Marquette Transportation Company Gulf-Inland, LLC, Jefferson, LA. More information available from US FCC via Universal Licensing System and Coast Guard Vessel Documentation Center.

Last reported at 2017-Nov-19 08:30 UTC. Time now 2017-Nov-19 08:41 UTC.
Position N 29°58' W 093°11'.

Length 173 m; draft 2.7 m.

Type: . MMSI: 366998050.

Date/timePositionNaut miles runAvg speedWind from/ knotsBaromVisibWave heightAir tempDewpointWater temp
2017-Nov-19 08:30N 29°58' W 093°11'0 0.0
2017-Nov-19 08:00N 29°58' W 093°11'0 0.0
2017-Nov-19 07:30N 29°58' W 093°11'0 0.0
2017-Nov-19 07:00N 29°58' W 093°11'0 0.0
2017-Nov-19 06:30N 29°58' W 093°11'0 0.0
2017-Nov-19 06:00N 29°58' W 093°11'0 0.0
2017-Nov-19 05:30N 29°58' W 093°11'0 0.0
2017-Nov-19 05:00N 29°58' W 093°11'0 0.0
2017-Nov-19 04:30N 29°58' W 093°11'0 0.0
2017-Nov-19 04:00N 29°58' W 093°11'0 0.0
2017-Nov-19 03:30N 29°58' W 093°11'0 0.0
2017-Nov-19 03:00N 29°58' W 093°11'1 2.3
2017-Nov-19 02:30N 29°57' W 093°10'2 4.2
2017-Nov-19 02:00N 29°56' W 093°08'40 4.9
2017-Nov-18 17:51N 29°52' W 092°23'2 4.8
2017-Nov-18 17:30N 29°51' W 092°21'2 5.0
2017-Nov-18 17:00N 29°50' W 092°19'2 4.6
2017-Nov-18 16:30N 29°49' W 092°17'2 4.8
2017-Nov-18 16:00N 29°48' W 092°14'2 3.4
2017-Nov-18 15:30N 29°47' W 092°12'1 2.6
2017-Nov-18 15:00N 29°47' W 092°11'2 3.7
2017-Nov-18 14:30N 29°47' W 092°09'3 5.2
2017-Nov-18 14:00N 29°48' W 092°06'3 5.1
2017-Nov-18 13:30N 29°49' W 092°03'2 4.7
2017-Nov-18 13:00N 29°50' W 092°01'  
2017-Nov-14 00:14N 29°51' W 091°53'1 4.8
2017-Nov-13 23:57N 29°51' W 091°55'3 4.6
2017-Nov-13 23:23N 29°50' W 091°58'2 4.5
2017-Nov-13 22:53N 29°50' W 092°00'1 3.2
2017-Nov-13 22:30N 29°49' W 092°02'2 4.5
2017-Nov-13 22:00N 29°48' W 092°04'67 3.2
2017-Nov-13 01:04N 30°06' W 093°18'0 0.8
2017-Nov-13 00:53N 30°06' W 093°18'0 0.0
2017-Nov-13 00:11N 30°06' W 093°18'0 0.3
2017-Nov-12 23:59N 30°06' W 093°18'1 1.5
2017-Nov-12 23:29N 30°06' W 093°19'2 3.6
2017-Nov-12 22:59N 30°04' W 093°20'2 3.1
2017-Nov-12 22:29N 30°04' W 093°22'1 2.8
2017-Nov-12 21:59N 30°04' W 093°24'0 0.1
2017-Nov-12 21:29N 30°04' W 093°24'0 0.2
2017-Nov-12 20:59N 30°04' W 093°24'2 3.4
2017-Nov-12 20:21N 30°04' W 093°26'2 4.3
2017-Nov-12 19:59N 30°04' W 093°28'2 4.4
2017-Nov-12 19:29N 30°04' W 093°31'2 4.4
2017-Nov-12 18:59N 30°04' W 093°33'52 3.8
2017-Nov-12 05:15N 29°36' W 094°24'3 3.6
2017-Nov-12 04:31N 29°34' W 094°26'0 4.8
2017-Nov-12 04:30N 29°34' W 094°26'23 3.6
2017-Nov-11 22:08N 29°30' W 094°52'1 6.4
2017-Nov-11 22:01N 29°30' W 094°53'3 6.4
2017-Nov-11 21:31N 29°33' W 094°55'3 6.2
2017-Nov-11 20:59N 29°36' W 094°57'3 6.2
2017-Nov-11 20:30N 29°38' W 094°58'3 6.5
2017-Nov-11 20:01N 29°41' W 094°59'5 5.3
2017-Nov-11 19:09N 29°44' W 095°03'1 4.5
2017-Nov-11 19:00N 29°45' W 095°04'2 1.3
2017-Nov-11 17:15N 29°47' W 095°05'1 5.2
2017-Nov-11 17:00N 29°46' W 095°05'1 1.9
2017-Nov-11 16:15N 29°47' W 095°05'0 0.0
2017-Nov-11 15:04N 29°47' W 095°05'0 4.0
2017-Nov-11 14:58N 29°46' W 095°05'0 0.0
2017-Nov-11 12:58N 29°47' W 095°05'1 0.1
2017-Nov-11 02:51N 29°46' W 095°05'1 0.6
2017-Nov-11 01:01N 29°47' W 095°05'0 4.3
2017-Nov-11 00:57N 29°46' W 095°05'0 0.0
2017-Nov-10 15:02N 29°46' W 095°05'1 0.1
2017-Nov-10 10:32N 29°46' W 095°05'1 0.2
2017-Nov-10 02:36N 29°47' W 095°04'0 2.3
2017-Nov-10 02:29N 29°47' W 095°04'1 2.9
2017-Nov-10 01:59N 29°45' W 095°04'3 5.5
2017-Nov-10 01:28N 29°44' W 095°01'3 5.4
2017-Nov-10 01:00N 29°42' W 094°60'3 5.9
2017-Nov-10 00:30N 29°39' W 094°58'4 6.1
2017-Nov-09 23:56N 29°36' W 094°57'2 5.4
2017-Nov-09 23:28N 29°34' W 094°55'  

Dump ship's entire track history